Super Express — WAB6372 — position and weather

sailwx.info

Track history (hours):
 
Tides and Currents Weather Stations Pressure Air Temp Water Temp Dewpoint Dewpoint Depression Visibility Wind Speed Wind Dir Waves Ship Positions

Super Express

Owner: CATALINA CHANNEL EXPRESS, Long Beach, CA. More information available from US FCC via Universal Licensing System and Coast Guard Vessel Documentation Center.

Last reported at 2017-Sep-21 12:30 UTC. Time now 2017-Sep-21 23:12 UTC.
Position N 33°45' W 118°16'.

Length 45 m; draft 1 m.

Type: High speed craft. MMSI: 366943940.

Date/timePositionNaut miles runAvg speedWind from/ knotsBaromVisibWave heightAir tempDewpointWater temp
2017-Sep-21 12:30N 33°45' W 118°16'0 0.0
2017-Sep-21 03:04N 33°45' W 118°16'0 0.5
2017-Sep-21 03:00N 33°45' W 118°16'0 0.3
2017-Sep-21 02:30N 33°45' W 118°16'0 0.0
2017-Sep-21 02:00N 33°45' W 118°16'1 2.7
2017-Sep-21 01:30N 33°44' W 118°16'2123.8
2017-Sep-21 00:36N 33°22' W 118°19'1 1.9
2017-Sep-20 23:53N 33°21' W 118°19'2012.7
2017-Sep-20 22:21N 33°40' W 118°17'411.9
2017-Sep-20 22:00N 33°44' W 118°17'1 1.0
2017-Sep-20 21:30N 33°45' W 118°16'0 0.0
2017-Sep-20 21:00N 33°45' W 118°16'0 0.0
2017-Sep-20 20:30N 33°45' W 118°16'0 0.0
2017-Sep-20 20:00N 33°45' W 118°16'0 0.0
2017-Sep-20 19:30N 33°45' W 118°16'5 9.4
2017-Sep-20 19:00N 33°40' W 118°16'1710.8
2017-Sep-20 17:26N 33°24' W 118°21'3 7.3
2017-Sep-20 17:00N 33°21' W 118°19'1422.9
2017-Sep-20 16:23N 33°35' W 118°17'822.0
2017-Sep-20 16:00N 33°43' W 118°16'2 3.3
2017-Sep-20 15:27N 33°45' W 118°16'0 0.0
2017-Sep-20 14:59N 33°45' W 118°16'0 0.1
2017-Sep-20 13:40N 33°45' W 118°16'0 0.0
2017-Sep-20 13:11N 33°45' W 118°16'0 0.2
2017-Sep-20 12:54N 33°45' W 118°16'0 0.0
2017-Sep-18 20:33N 33°45' W 118°16'0 0.1
2017-Sep-18 20:30N 33°45' W 118°16'0 0.8
2017-Sep-18 20:00N 33°45' W 118°17'510.9
2017-Sep-18 19:30N 33°39' W 118°18'1019.4
2017-Sep-18 19:00N 33°32' W 118°26'15 0.8
2017-Sep-18 00:45N 33°45' W 118°16'0 0.2
2017-Sep-18 00:25N 33°45' W 118°16'0 0.0
2017-Sep-17 23:59N 33°45' W 118°16'0 0.0
2017-Sep-17 23:30N 33°45' W 118°16'2 3.8
2017-Sep-17 23:00N 33°43' W 118°16'2024.1
2017-Sep-17 22:11N 33°23' W 118°18'3 3.0
2017-Sep-17 21:15N 33°21' W 118°19'417.3
2017-Sep-17 21:00N 33°25' W 118°19'1325.1
2017-Sep-17 20:30N 33°37' W 118°16'714.6
2017-Sep-17 19:59N 33°45' W 118°16'0 0.0
2017-Sep-17 19:30N 33°45' W 118°16'0 0.0
2017-Sep-17 18:54N 33°45' W 118°16'4 9.3
2017-Sep-17 18:30N 33°42' W 118°15'1925.0
2017-Sep-17 17:46N 33°23' W 118°18'3 3.3
2017-Sep-17 16:57N 33°21' W 118°19'1623.2
2017-Sep-17 16:15N 33°37' W 118°16'623.8
2017-Sep-17 15:59N 33°43' W 118°16'2 0.1
2017-Sep-16 22:07N 33°45' W 118°16'0 0.8
2017-Sep-16 22:00N 33°45' W 118°16'0 0.0
2017-Sep-16 21:28N 33°45' W 118°16'613.4
2017-Sep-16 21:00N 33°39' W 118°15'1626.3
2017-Sep-16 20:25N 33°24' W 118°19'3 4.3
2017-Sep-16 19:46N 33°21' W 118°19'1723.7
2017-Sep-16 19:04N 33°37' W 118°16'124.9
2017-Sep-16 19:00N 33°39' W 118°16'612.4
2017-Sep-16 18:30N 33°45' W 118°16'0 0.3
2017-Sep-16 17:59N 33°45' W 118°16'1 2.3
2017-Sep-16 17:31N 33°44' W 118°16'2123.8
2017-Sep-16 16:38N 33°23' W 118°19'2 4.6
2017-Sep-16 16:11N 33°21' W 118°19'1823.9
2017-Sep-16 15:25N 33°39' W 118°16'614.1
2017-Sep-16 15:00N 33°45' W 118°16'0 0.1
2017-Sep-16 14:11N 33°45' W 118°16'0 0.2
2017-Sep-16 13:53N 33°45' W 118°16'0 0.1
2017-Sep-16 13:22N 33°45' W 118°16'0 0.0
2017-Sep-16 13:00N 33°45' W 118°16'0 0.0
2017-Sep-16 07:18N 33°45' W 118°16'0 0.3
2017-Sep-16 06:59N 33°45' W 118°16'0 0.0
2017-Sep-16 06:29N 33°45' W 118°16'0 0.6
2017-Sep-16 06:00N 33°45' W 118°17'815.9
2017-Sep-16 05:31N 33°37' W 118°15'1525.8
2017-Sep-16 04:55N 33°22' W 118°19'1 2.2
2017-Sep-16 04:22N 33°21' W 118°19'821.4
2017-Sep-16 04:01N 33°26' W 118°26'1410.9
2017-Sep-16 02:43N 33°39' W 118°18'421.7
2017-Sep-16 02:31N 33°43' W 118°16'2 3.6
2017-Sep-16 01:59N 33°45' W 118°16'0 0.0
2017-Sep-16 01:30N 33°45' W 118°16'0 0.0
2017-Sep-16 00:59N 33°45' W 118°16'2 4.6
2017-Sep-16 00:30N 33°43' W 118°15'2115.9
2017-Sep-15 23:12N 33°22' W 118°21'624.1
2017-Sep-15 22:57N 33°28' W 118°19'1125.1
2017-Sep-15 22:31N 33°39' W 118°16'612.2
2017-Sep-15 22:00N 33°45' W 118°16'0 0.0
2017-Sep-15 21:30N 33°45' W 118°16'0 0.0
2017-Sep-15 21:00N 33°45' W 118°16'1 2.8
2017-Sep-15 20:30N 33°44' W 118°16'7 2.6
2017-Sep-15 17:38N 33°37' W 118°20'424.4
2017-Sep-15 17:29N 33°39' W 118°17'5 9.4
2017-Sep-15 16:55N 33°45' W 118°16'0 0.0
2017-Sep-15 16:27N 33°45' W 118°16'0 0.2
2017-Sep-15 15:59N 33°45' W 118°16'0 0.1
2017-Sep-15 15:30N 33°45' W 118°16'0 0.0
2017-Sep-15 14:58N 33°45' W 118°16'0 0.0
2017-Sep-15 14:29N 33°45' W 118°16'0 0.0
2017-Sep-15 13:58N 33°45' W 118°16'0 0.0
2017-Sep-15 13:30N 33°45' W 118°16'0 0.1
2017-Sep-15 13:00N 33°45' W 118°16'0 0.1
2017-Sep-15 12:30N 33°45' W 118°16'0 0.0
2017-Sep-14 20:08N 33°45' W 118°16'0 0.0
2017-Sep-14 19:59N 33°45' W 118°16'0 0.0
2017-Sep-14 19:30N 33°45' W 118°16'0 0.0
2017-Sep-14 19:00N 33°45' W 118°16'0 0.0
2017-Sep-14 18:29N 33°45' W 118°16'0 0.0
2017-Sep-14 18:00N 33°45' W 118°16'0 0.0
2017-Sep-14 17:30N 33°45' W 118°16'0 0.0
2017-Sep-14 17:00N 33°45' W 118°16'0 0.0
2017-Sep-14 16:30N 33°45' W 118°16'0 0.0
2017-Sep-14 16:00N 33°45' W 118°16'0 0.0
2017-Sep-14 15:30N 33°45' W 118°16'0 0.0
2017-Sep-14 14:58N 33°45' W 118°16'0 0.1
2017-Sep-14 14:25N 33°45' W 118°16'0 0.1
2017-Sep-14 13:57N 33°45' W 118°16'0 0.1
2017-Sep-14 13:30N 33°45' W 118°16'0 0.1
2017-Sep-14 12:58N 33°45' W 118°16'0 0.0
2017-Sep-14 03:05N 33°45' W 118°16'0 0.0
2017-Sep-14 03:00N 33°45' W 118°16'0 0.2
2017-Sep-14 02:30N 33°45' W 118°16'0 0.0
2017-Sep-14 02:00N 33°45' W 118°16'2 3.3
2017-Sep-14 01:31N 33°43' W 118°16'1924.3
2017-Sep-14 00:43N 33°24' W 118°18'4 9.7
2017-Sep-14 00:21N 33°21' W 118°19'0 0.6
2017-Sep-13 23:56N 33°21' W 118°19'1310.1
2017-Sep-13 22:41N 33°33' W 118°22'525.7
2017-Sep-13 22:30N 33°37' W 118°19'815.8
2017-Sep-13 22:00N 33°45' W 118°17'0 0.3
2017-Sep-13 21:30N 33°45' W 118°16'0 0.0
2017-Sep-13 21:00N 33°45' W 118°16'0 0.0
2017-Sep-13 20:30N 33°45' W 118°16'0 0.0
2017-Sep-13 20:00N 33°45' W 118°16'0 0.0
2017-Sep-13 19:30N 33°45' W 118°16'610.9
2017-Sep-13 19:00N 33°39' W 118°17'1610.1
2017-Sep-13 17:27N 33°24' W 118°21'4 7.3
2017-Sep-13 16:56N 33°21' W 118°19'1225.1
2017-Sep-13 16:26N 33°33' W 118°16'1023.1
2017-Sep-13 15:59N 33°43' W 118°16'2 3.2
2017-Sep-13 15:30N 33°45' W 118°16'0 0.0
2017-Sep-13 15:00N 33°45' W 118°16'0 0.2
2017-Sep-13 14:30N 33°45' W 118°16'0 0.1
2017-Sep-13 14:00N 33°45' W 118°16'0 0.0
2017-Sep-13 13:30N 33°45' W 118°16'0 0.1
2017-Sep-13 13:00N 33°45' W 118°16'0 0.0
2017-Sep-12 20:21N 33°45' W 118°16'0 0.0
2017-Sep-12 20:00N 33°45' W 118°16'510.1
2017-Sep-12 19:31N 33°40' W 118°16'1223.4
2017-Sep-12 19:00N 33°32' W 118°27'5 6.8
2017-Sep-12 18:12N 33°28' W 118°31'822.9
2017-Sep-12 17:52N 33°33' W 118°25'924.6
2017-Sep-12 17:31N 33°40' W 118°18'510.2
2017-Sep-12 17:00N 33°45' W 118°16'0 0.0
2017-Sep-12 16:30N 33°45' W 118°16'0 0.2
2017-Sep-12 16:00N 33°45' W 118°16'0 0.1
2017-Sep-12 15:30N 33°45' W 118°16'0 0.1
2017-Sep-12 15:00N 33°45' W 118°16'0 0.0
2017-Sep-12 14:30N 33°45' W 118°16'0 0.0
2017-Sep-12 14:00N 33°45' W 118°16'0 0.0
2017-Sep-12 13:30N 33°45' W 118°16'0 0.1
2017-Sep-12 13:00N 33°45' W 118°16'0 0.1
2017-Sep-12 12:30N 33°45' W 118°16'  
Track history (hours):
 
Tides and Currents Weather Stations Pressure Air Temp Water Temp Dewpoint Dewpoint Depression Visibility Wind Speed Wind Dir Waves Ship Positions

Super Express

Owner: CATALINA CHANNEL EXPRESS, Long Beach, CA. More information available from US FCC via Universal Licensing System and Coast Guard Vessel Documentation Center.

Last reported at 2017-Sep-21 12:30 UTC. Time now 2017-Sep-21 23:12 UTC.
Position N 33°45' W 118°16'.

Length 45 m; draft 1 m.

Type: High speed craft. MMSI: 366943940.

Date/timePositionNaut miles runAvg speedWind from/ knotsBaromVisibWave heightAir tempDewpointWater temp
2017-Sep-21 12:30N 33°45' W 118°16'0 0.0
2017-Sep-21 03:04N 33°45' W 118°16'0 0.5
2017-Sep-21 03:00N 33°45' W 118°16'0 0.3
2017-Sep-21 02:30N 33°45' W 118°16'0 0.0
2017-Sep-21 02:00N 33°45' W 118°16'1 2.7
2017-Sep-21 01:30N 33°44' W 118°16'2123.8
2017-Sep-21 00:36N 33°22' W 118°19'1 1.9
2017-Sep-20 23:53N 33°21' W 118°19'2012.7
2017-Sep-20 22:21N 33°40' W 118°17'411.9
2017-Sep-20 22:00N 33°44' W 118°17'1 1.0
2017-Sep-20 21:30N 33°45' W 118°16'0 0.0
2017-Sep-20 21:00N 33°45' W 118°16'0 0.0
2017-Sep-20 20:30N 33°45' W 118°16'0 0.0
2017-Sep-20 20:00N 33°45' W 118°16'0 0.0
2017-Sep-20 19:30N 33°45' W 118°16'5 9.4
2017-Sep-20 19:00N 33°40' W 118°16'1710.8
2017-Sep-20 17:26N 33°24' W 118°21'3 7.3
2017-Sep-20 17:00N 33°21' W 118°19'1422.9
2017-Sep-20 16:23N 33°35' W 118°17'822.0
2017-Sep-20 16:00N 33°43' W 118°16'2 3.3
2017-Sep-20 15:27N 33°45' W 118°16'0 0.0
2017-Sep-20 14:59N 33°45' W 118°16'0 0.1
2017-Sep-20 13:40N 33°45' W 118°16'0 0.0
2017-Sep-20 13:11N 33°45' W 118°16'0 0.2
2017-Sep-20 12:54N 33°45' W 118°16'0 0.0
2017-Sep-18 20:33N 33°45' W 118°16'0 0.1
2017-Sep-18 20:30N 33°45' W 118°16'0 0.8
2017-Sep-18 20:00N 33°45' W 118°17'510.9
2017-Sep-18 19:30N 33°39' W 118°18'1019.4
2017-Sep-18 19:00N 33°32' W 118°26'15 0.8
2017-Sep-18 00:45N 33°45' W 118°16'0 0.2
2017-Sep-18 00:25N 33°45' W 118°16'0 0.0
2017-Sep-17 23:59N 33°45' W 118°16'0 0.0
2017-Sep-17 23:30N 33°45' W 118°16'2 3.8
2017-Sep-17 23:00N 33°43' W 118°16'2024.1
2017-Sep-17 22:11N 33°23' W 118°18'3 3.0
2017-Sep-17 21:15N 33°21' W 118°19'417.3
2017-Sep-17 21:00N 33°25' W 118°19'1325.1
2017-Sep-17 20:30N 33°37' W 118°16'714.6
2017-Sep-17 19:59N 33°45' W 118°16'0 0.0
2017-Sep-17 19:30N 33°45' W 118°16'0 0.0
2017-Sep-17 18:54N 33°45' W 118°16'4 9.3
2017-Sep-17 18:30N 33°42' W 118°15'1925.0
2017-Sep-17 17:46N 33°23' W 118°18'3 3.3
2017-Sep-17 16:57N 33°21' W 118°19'1623.2
2017-Sep-17 16:15N 33°37' W 118°16'623.8
2017-Sep-17 15:59N 33°43' W 118°16'2 0.1
2017-Sep-16 22:07N 33°45' W 118°16'0 0.8
2017-Sep-16 22:00N 33°45' W 118°16'0 0.0
2017-Sep-16 21:28N 33°45' W 118°16'613.4
2017-Sep-16 21:00N 33°39' W 118°15'1626.3
2017-Sep-16 20:25N 33°24' W 118°19'3 4.3
2017-Sep-16 19:46N 33°21' W 118°19'1723.7
2017-Sep-16 19:04N 33°37' W 118°16'124.9
2017-Sep-16 19:00N 33°39' W 118°16'612.4
2017-Sep-16 18:30N 33°45' W 118°16'0 0.3
2017-Sep-16 17:59N 33°45' W 118°16'1 2.3
2017-Sep-16 17:31N 33°44' W 118°16'2123.8
2017-Sep-16 16:38N 33°23' W 118°19'2 4.6
2017-Sep-16 16:11N 33°21' W 118°19'1823.9
2017-Sep-16 15:25N 33°39' W 118°16'614.1
2017-Sep-16 15:00N 33°45' W 118°16'0 0.1
2017-Sep-16 14:11N 33°45' W 118°16'0 0.2
2017-Sep-16 13:53N 33°45' W 118°16'0 0.1
2017-Sep-16 13:22N 33°45' W 118°16'0 0.0
2017-Sep-16 13:00N 33°45' W 118°16'0 0.0
2017-Sep-16 07:18N 33°45' W 118°16'0 0.3
2017-Sep-16 06:59N 33°45' W 118°16'0 0.0
2017-Sep-16 06:29N 33°45' W 118°16'0 0.6
2017-Sep-16 06:00N 33°45' W 118°17'815.9
2017-Sep-16 05:31N 33°37' W 118°15'1525.8
2017-Sep-16 04:55N 33°22' W 118°19'1 2.2
2017-Sep-16 04:22N 33°21' W 118°19'821.4
2017-Sep-16 04:01N 33°26' W 118°26'1410.9
2017-Sep-16 02:43N 33°39' W 118°18'421.7
2017-Sep-16 02:31N 33°43' W 118°16'2 3.6
2017-Sep-16 01:59N 33°45' W 118°16'0 0.0
2017-Sep-16 01:30N 33°45' W 118°16'0 0.0
2017-Sep-16 00:59N 33°45' W 118°16'2 4.6
2017-Sep-16 00:30N 33°43' W 118°15'2115.9
2017-Sep-15 23:12N 33°22' W 118°21'624.1
2017-Sep-15 22:57N 33°28' W 118°19'1125.1
2017-Sep-15 22:31N 33°39' W 118°16'612.2
2017-Sep-15 22:00N 33°45' W 118°16'0 0.0
2017-Sep-15 21:30N 33°45' W 118°16'0 0.0
2017-Sep-15 21:00N 33°45' W 118°16'1 2.8
2017-Sep-15 20:30N 33°44' W 118°16'7 2.6
2017-Sep-15 17:38N 33°37' W 118°20'424.4
2017-Sep-15 17:29N 33°39' W 118°17'5 9.4
2017-Sep-15 16:55N 33°45' W 118°16'0 0.0
2017-Sep-15 16:27N 33°45' W 118°16'0 0.2
2017-Sep-15 15:59N 33°45' W 118°16'0 0.1
2017-Sep-15 15:30N 33°45' W 118°16'0 0.0
2017-Sep-15 14:58N 33°45' W 118°16'0 0.0
2017-Sep-15 14:29N 33°45' W 118°16'0 0.0
2017-Sep-15 13:58N 33°45' W 118°16'0 0.0
2017-Sep-15 13:30N 33°45' W 118°16'0 0.1
2017-Sep-15 13:00N 33°45' W 118°16'0 0.1
2017-Sep-15 12:30N 33°45' W 118°16'0 0.0
2017-Sep-14 20:08N 33°45' W 118°16'0 0.0
2017-Sep-14 19:59N 33°45' W 118°16'0 0.0
2017-Sep-14 19:30N 33°45' W 118°16'0 0.0
2017-Sep-14 19:00N 33°45' W 118°16'0 0.0
2017-Sep-14 18:29N 33°45' W 118°16'0 0.0
2017-Sep-14 18:00N 33°45' W 118°16'0 0.0
2017-Sep-14 17:30N 33°45' W 118°16'0 0.0
2017-Sep-14 17:00N 33°45' W 118°16'0 0.0
2017-Sep-14 16:30N 33°45' W 118°16'0 0.0
2017-Sep-14 16:00N 33°45' W 118°16'0 0.0
2017-Sep-14 15:30N 33°45' W 118°16'0 0.0
2017-Sep-14 14:58N 33°45' W 118°16'0 0.1
2017-Sep-14 14:25N 33°45' W 118°16'0 0.1
2017-Sep-14 13:57N 33°45' W 118°16'0 0.1
2017-Sep-14 13:30N 33°45' W 118°16'0 0.1
2017-Sep-14 12:58N 33°45' W 118°16'0 0.0
2017-Sep-14 03:05N 33°45' W 118°16'0 0.0
2017-Sep-14 03:00N 33°45' W 118°16'0 0.2
2017-Sep-14 02:30N 33°45' W 118°16'0 0.0
2017-Sep-14 02:00N 33°45' W 118°16'2 3.3
2017-Sep-14 01:31N 33°43' W 118°16'1924.3
2017-Sep-14 00:43N 33°24' W 118°18'4 9.7
2017-Sep-14 00:21N 33°21' W 118°19'0 0.6
2017-Sep-13 23:56N 33°21' W 118°19'1310.1
2017-Sep-13 22:41N 33°33' W 118°22'525.7
2017-Sep-13 22:30N 33°37' W 118°19'815.8
2017-Sep-13 22:00N 33°45' W 118°17'0 0.3
2017-Sep-13 21:30N 33°45' W 118°16'0 0.0
2017-Sep-13 21:00N 33°45' W 118°16'0 0.0
2017-Sep-13 20:30N 33°45' W 118°16'0 0.0
2017-Sep-13 20:00N 33°45' W 118°16'0 0.0
2017-Sep-13 19:30N 33°45' W 118°16'610.9
2017-Sep-13 19:00N 33°39' W 118°17'1610.1
2017-Sep-13 17:27N 33°24' W 118°21'4 7.3
2017-Sep-13 16:56N 33°21' W 118°19'1225.1
2017-Sep-13 16:26N 33°33' W 118°16'1023.1
2017-Sep-13 15:59N 33°43' W 118°16'2 3.2
2017-Sep-13 15:30N 33°45' W 118°16'0 0.0
2017-Sep-13 15:00N 33°45' W 118°16'0 0.2
2017-Sep-13 14:30N 33°45' W 118°16'0 0.1
2017-Sep-13 14:00N 33°45' W 118°16'0 0.0
2017-Sep-13 13:30N 33°45' W 118°16'0 0.1
2017-Sep-13 13:00N 33°45' W 118°16'0 0.0
2017-Sep-12 20:21N 33°45' W 118°16'0 0.0
2017-Sep-12 20:00N 33°45' W 118°16'510.1
2017-Sep-12 19:31N 33°40' W 118°16'1223.4
2017-Sep-12 19:00N 33°32' W 118°27'5 6.8
2017-Sep-12 18:12N 33°28' W 118°31'822.9
2017-Sep-12 17:52N 33°33' W 118°25'924.6
2017-Sep-12 17:31N 33°40' W 118°18'510.2
2017-Sep-12 17:00N 33°45' W 118°16'0 0.0
2017-Sep-12 16:30N 33°45' W 118°16'0 0.2
2017-Sep-12 16:00N 33°45' W 118°16'0 0.1
2017-Sep-12 15:30N 33°45' W 118°16'0 0.1
2017-Sep-12 15:00N 33°45' W 118°16'0 0.0
2017-Sep-12 14:30N 33°45' W 118°16'0 0.0
2017-Sep-12 14:00N 33°45' W 118°16'0 0.0
2017-Sep-12 13:30N 33°45' W 118°16'0 0.1
2017-Sep-12 13:00N 33°45' W 118°16'0 0.1
2017-Sep-12 12:30N 33°45' W 118°16'  

Dump ship's entire track history